Tiempo atmosférico en la estación meteorológica de Cabacés, Tarragona (360 m.)



Fecha
DESCASC
Temp. máxima en grados centígrados (hora)
DESCASC
Temp. mínima en grados centígrados (hora)
DESCASC
Temp. media en grados centígrados
DESCASC
Racha de viento máxima en m/sg (hora)
DESCASC
Velocidad máxima media en intervalos de 10 minutos(hora)
DESCASC
Precipitaciones diarias en mm
DESCASC
Precipitaciones de 00:00 a 06:00 en mm
DESCASC
Precipitaciones de 06:00 a 12:00 en mm
DESCASC
Precipitaciones de 12:00 a 18:00 en mm
DESCASC
Precipitaciones de 18:00 a 24:00 en mm
DESCASC
03-01-2020 4.1 (16:00) 0.6 (00:00) 2.3 5.28 (10:40) 1.94 (09:30) 0 0 0 0 0
17-01-2020 15.2 (15:50) 3.8 (00:00) 9.5 10 (17:20) 3.89 (19:50) 0 0 0 0 0
16-01-2020 17.6 (15:10) 2.5 (00:00) 10.1 5.56 (19:40) 2.5 (19:40) 0 0 0 0 0
15-01-2020 14.2 (16:40) -1.5 (-00:0) 6.3 3.61 (15:30) 1.39 (13:40) 0 0 0 0 0
14-01-2020 12.9 (15:50) -3.3 (-00:0) 4.8 2.5 (14:40) 1.39 (13:30) 0 0 0 0 0
13-01-2020 9.5 (13:40) -3.4 (-00:0) 3 2.22 (13:10) 1.39 (13:10) 0 0 0 0 0
12-01-2020 12.2 (15:10) -0.4 (05:10) 5.9 6.67 (12:50) 2.22 (12:50) 0 0 0 0 0
11-01-2020 11.9 (16:10) 1.7 (00:00) 6.8 5.56 (12:10) 2.22 (12:20) 0 0 0 0 0
09-01-2020 12.1 (16:30) 0 (00:00) 6.1 7.22 (20:50) 2.22 (20:50) 0 0 0 0 0
08-01-2020 12.2 (15:50) 0 (00:00) 6.1 3.61 (00:50) 1.67 (00:50) 0 0 0 0 0
07-01-2020 7.7 (15:00) 0.7 (00:00) 4.2 6.11 (13:30) 3.06 (15:30) 0 0 0 0 0
06-01-2020 6.6 (14:20) -1.4 (-00:0) 2.6 3.33 (18:10) 1.67 (17:50) 0 0 0 0 0
05-01-2020 11.7 (16:00) 1.5 (00:00) 6.6 6.39 (04:40) 2.78 (13:50) 0 0 0 0 0
04-01-2020 8.7 (16:50) 2.3 (00:00) 5.5 5.28 (14:50) 1.94 (23:40) 0 0 0 0 0
02-01-2020 7.1 (15:50) 0.5 (00:00) 3.8 3.33 (03:40) 1.67 (02:40) 0 0 0 0 0
01-01-2020 3.2 (15:20) 1.9 (00:00) 2.6 6.11 (04:30) 2.22 (04:30) 0 0 0 0 0
31-12-2019 5 (12:50) 2 (00:00) 3.5 4.44 (23:50) 1.67 (13:40) 0 0 0 0 0
30-12-2019 5.4 (13:30) 2.5 (00:00) 4 2.78 (15:50) 1.39 (15:50) 0 0 0 0 0
29-12-2019 6.9 (15:20) 0.6 (00:00) 3.8 3.33 (15:00) 1.67 (16:00) 0 0 0 0 0
28-12-2019 13.2 (14:50) -0.1 (00:00) 6.5 2.78 (15:20) 1.39 (15:20) 0 0 0 0 0
27-12-2019 12.3 (13:50) 2.4 (00:00) 7.4 6.11 (06:00) 2.5 (10:50) 0 0 0 0 0
26-12-2019 12.7 (16:10) 5.8 (00:00) 9.3 9.72 (11:20) 2.78 (05:50) 0 0 0 0 0
25-12-2019 18.6 (15:00) 6.8 (00:00) 12.7 5 (09:50) 2.78 (10:00) 0 0 0 0 0
24-12-2019 17.5 (15:10) 6.9 (06:50) 12.2 6.39 (11:40) 2.5 (10:30) 0 0 0 0 0
23-12-2019 15.2 (15:30) 9.1 (00:00) 12.2 12.22 (08:00) 5.28 (08:00) 0 0 0 0 0
22-12-2019 15.1 (14:10) 10.7 (23:20) 12.9 13.33 (07:20) 4.72 (07:30) 0.4 0 0 0.2 0.2
10-01-2020 10.1 (16:40) 2.6 (00:00) 6.4 5 (08:30) 2.5 (03:10) 0.8 0.8 0 0 0
19-12-2019 14.4 (13:20) 6.3 (00:50) 10.3 10.83 (19:40) 4.44 (21:40) 1 0 0 0 1
21-12-2019 19.1 (16:40) 10.9 (01:30) 15 9.44 (20:30) 3.89 (04:50) 1.2 0.2 0 0.8 0.2
20-12-2019 16.2 (13:00) 11.8 (00:00) 14 11.39 (02:30) 5.28 (02:00) 11.2 1.2 4.4 0.4 5.2

Gráficas

Temp. máximas Temp. mínimas Temp. medias Precipitaciones Rachas de viento máximas Velocidades máximas media en intervalos de 10 minutos

Datos horarios

Fecha y hora oficial Temperatura (ºC) Velocidad del viento (km/h) Dirección del viento Racha (km/h) Dirección de racha Precipitación (mm) Presión (hPa) Tendencia (hPa) Humedad (%)
2020-01-17 23:00:00 7.5 5 Sudeste 19 Nordeste 0 -- -- 62
2020-01-17 22:00:00 8.4 7 Este 30 Nordeste 0 -- -- 57
2020-01-17 21:00:00 9.5 12 Nordeste 31 Nordeste 0 -- -- 54
2020-01-17 20:00:00 10.1 11 Nordeste 32 Nordeste 0 -- -- 58
2020-01-17 19:00:00 10.6 10 Nordeste 33 Este 0 -- -- 57
2020-01-17 18:00:00 11.3 12 Nordeste 36 Nordeste 0 -- -- 56
2020-01-17 17:00:00 13 9 Nordeste 33 Sudoeste 0 -- -- 60
2020-01-17 16:00:00 15.1 11 Sudoeste 32 Sur 0 -- -- 51
2020-01-17 15:00:00 14.3 14 Sur 35 Sudoeste 0 -- -- 56
2020-01-17 14:00:00 14.8 6 Oeste 26 Sudoeste 0 -- -- 57
2020-01-17 13:00:00 13.9 8 Sudoeste 22 Sudoeste 0 -- -- 58
2020-01-17 12:00:00 12.7 8 Sur 19 Sur 0 -- -- 59
2020-01-17 11:00:00 10.1 5 Sur 13 Sudoeste 0 -- -- 71
2020-01-17 10:00:00 5.1 3 Norte 7 Este 0 -- -- 92
2020-01-17 09:00:00 4.7 0 Calma 9 Nordeste 0 -- -- 91
2020-01-17 08:00:00 5.2 2 Sudeste 7 Noroeste 0 -- -- 89
2020-01-17 07:00:00 6.8 2 Norte 17 Este 0 -- -- 84
2020-01-17 06:00:00 4.6 0 Calma 7 Norte 0 -- -- 94
2020-01-17 05:00:00 3.8 0 Calma 4 Sudeste 0 -- -- 93
2020-01-17 04:00:00 4 2 Sur 5 Sur 0 -- -- 91
2020-01-17 03:00:00 4.8 0 Calma 5 Sudeste 0 -- -- 88
2020-01-17 02:00:00 6.1 0 Calma 5 Nordeste 0 -- -- 84
2020-01-17 01:00:00 6.9 0 Calma 8 Sudeste 0 -- -- 82
2020-01-17 00:00:00 8.4 3 Oeste 8 Sudoeste 0 -- -- 78
2020-01-16 23:00:00 9.3 3 Noroeste 16 Sur 0 -- -- 75
2020-01-16 22:00:00 9.2 4 Oeste 11 Sudoeste 0 -- -- 79
2020-01-16 21:00:00 10.1 4 Sudoeste 14 Este 0 -- -- 75
2020-01-16 20:00:00 11.2 5 Sudoeste 20 Este 0 -- -- 75
2020-01-16 19:00:00 11.6 6 Sudeste 15 Sudeste 0 -- -- 72
2020-01-16 18:00:00 13.1 3 Sudoeste 9 Sudeste 0 -- -- 64
2020-01-16 17:00:00 16.6 3 Sudoeste 9 Noroeste 0 -- -- 55
2020-01-16 16:00:00 17.5 3 Sur 13 Sudoeste 0 -- -- 51
2020-01-16 15:00:00 17.4 3 Oeste 7 Oeste 0 -- -- 53
2020-01-16 14:00:00 16.5 2 Sudoeste 9 Sudoeste 0 -- -- 55
2020-01-16 13:00:00 15.3 4 Sudoeste 8 Sudoeste 0 -- -- 61
2020-01-16 12:00:00 12.5 0 Calma 4 Sur 0 -- -- 75
2020-01-16 11:00:00 6.9 0 Calma 2 Sudeste 0 -- -- 96
2020-01-16 10:00:00 3.6 0 Calma 4 Sur 0 -- -- 97
2020-01-16 09:00:00 2.7 0 Calma 2 Noroeste 0 -- -- 95
2020-01-16 08:00:00 2.5 0 Calma 5 Sudeste 0 -- -- 94
2020-01-16 07:00:00 2.7 0 Calma 4 Sudeste 0 -- -- 94
2020-01-16 06:00:00 2.8 0 Calma 2 Norte 0 -- -- 93
2020-01-16 05:00:00 3 0 Calma 4 Sudoeste 0 -- -- 92
2020-01-16 04:00:00 3.9 0 Calma 4 Sudeste 0 -- -- 91
2020-01-16 03:00:00 3.8 0 Calma 4 Noroeste 0 -- -- 91
2020-01-16 02:00:00 4 0 Calma 5 Sudeste 0 -- -- 90
2020-01-16 01:00:00 3.8 2 Este 4 Oeste 0 -- -- 89
2020-01-16 00:00:00 4.6 0 Calma 5 Sudeste 0 -- -- 89
2020-01-15 23:00:00 4.5 2 Sur 5 Sudeste 0 -- -- 88
2020-01-15 22:00:00 4.6 0 Calma 4 Sudeste 0 -- -- 85
2020-01-15 21:00:00 5.1 0 Calma 4 Sur 0 -- -- 83
2020-01-15 20:00:00 6 0 Calma 2 Norte 0 -- -- 79
2020-01-15 19:00:00 7.1 0 Calma 3 Sudeste 0 -- -- 74
2020-01-15 18:00:00 10.2 0 Calma 6 Sudoeste 0 -- -- 63
2020-01-15 17:00:00 14 2 Oeste 10 Noroeste 0 -- -- 52
2020-01-15 16:00:00 13.9 5 Noroeste 13 Nordeste 0 -- -- 52
2020-01-15 15:00:00 12.9 4 Sudoeste 9 Sudoeste 0 -- -- 53
2020-01-15 14:00:00 11.9 4 Oeste 10 Oeste 0 -- -- 57
2020-01-15 13:00:00 11.2 3 Sudoeste 6 Sur 0 -- -- 60
2020-01-15 12:00:00 7.9 3 Sur 5 Sudeste 0 -- -- 77
2020-01-15 11:00:00 2.4 0 Calma 2 Noroeste 0 -- -- 93
2020-01-15 10:00:00 0.5 0 Calma 4 Sudeste 0 -- -- 96
2020-01-15 09:00:00 -1 0 Calma 6 Noroeste 0 -- -- 95
2020-01-15 08:00:00 -1.4 2 Este 6 Sur 0 -- -- 95
2020-01-15 07:00:00 -1.4 0 Calma 4 Sudeste 0 -- -- 95
2020-01-15 06:00:00 -1.4 0 Calma 6 Sudeste 0 -- -- 94
2020-01-15 05:00:00 -1 0 Calma 5 Sur 0 -- -- 94
2020-01-15 04:00:00 -0.7 0 Calma 4 Sur 0 -- -- 95
2020-01-15 03:00:00 -0.7 2 Este 5 Este 0 -- -- 94
2020-01-15 02:00:00 -0.3 0 Calma 5 Sudeste 0 -- -- 93
2020-01-15 01:00:00 0.1 0 Calma 4 Sudeste 0 -- -- 92
2020-01-15 00:00:00 0.9 0 Calma 4 Sur 0 -- -- 92
2020-01-14 23:00:00 1.4 0 Calma 4 Sur 0 -- -- 90
2020-01-14 22:00:00 1.9 0 Calma 2 Noroeste 0 -- -- 90
2020-01-14 21:00:00 2.3 0 Calma 5 Sudeste 0 -- -- 88
2020-01-14 20:00:00 3.4 0 Calma -- -- 0 -- -- 85
2020-01-14 19:00:00 4.7 0 Calma 0 Calma 0 -- -- 80
2020-01-14 18:00:00 7.6 0 Calma 5 Oeste 0 -- -- 70
2020-01-14 17:00:00 11.9 3 Oeste 8 Sur 0 -- -- 57
2020-01-14 16:00:00 12.8 3 Sudoeste 8 Sudoeste 0 -- -- 55
2020-01-14 15:00:00 12.4 4 Sudoeste 9 Sudoeste 0 -- -- 56
2020-01-14 14:00:00 11.9 3 Sudoeste 9 Noroeste 0 -- -- 57
2020-01-14 13:00:00 10.3 3 Sudoeste 6 Sudoeste 0 -- -- 65
2020-01-14 12:00:00 6.6 2 Sudoeste 5 Sur 0 -- -- 83
2020-01-14 11:00:00 1.3 2 Sur 5 Este 0 -- -- 97
2020-01-14 10:00:00 -1.5 0 Calma 3 Noroeste 0 -- -- 96
2020-01-14 09:00:00 -2.1 0 Calma 5 Sudeste 0 -- -- 97
2020-01-14 08:00:00 -2.5 0 Calma 5 Sudeste 0 -- -- 96
2020-01-14 07:00:00 -3.3 0 Calma 5 Sudeste 0 -- -- 96
2020-01-14 06:00:00 -3.1 0 Calma 4 Sudeste 0 -- -- 96
2020-01-14 05:00:00 -2.7 0 Calma 4 Sudeste 0 -- -- 96
2020-01-14 04:00:00 -2.5 2 Sudeste 4 Sudeste 0 -- -- 96
2020-01-14 03:00:00 -2.3 0 Calma 4 Sudeste 0 -- -- 95
2020-01-14 02:00:00 -2.1 2 Oeste 5 Sudeste 0 -- -- 95
2020-01-14 01:00:00 -1.6 3 Este 7 Sudeste 0 -- -- 94
2020-01-14 00:00:00 -0.6 0 Calma 2 Noroeste 0 -- -- 95
2020-01-13 23:00:00 -0.9 0 Calma 4 Sudeste 0 -- -- 94
2020-01-13 22:00:00 -0.6 0 Calma 3 Sudeste 0 -- -- 92
2020-01-13 21:00:00 0 0 Calma 3 Sudeste 0 -- -- 91
2020-01-13 20:00:00 0.8 0 Calma 4 Noroeste 0 -- -- 89
2020-01-13 19:00:00 1.9 0 Calma 4 Noroeste 0 -- -- 86
2020-01-13 18:00:00 3.5 0 Calma 6 Sur 0 -- -- 81
2020-01-13 17:00:00 5.8 3 Sur 6 Sur 0 -- -- 76
2020-01-13 16:00:00 7.7 3 Sudoeste 8 Sur 0 -- -- 71
2020-01-13 15:00:00 8.9 3 Sudoeste 6 Sudoeste 0 -- -- 68
2020-01-13 14:00:00 9.5 3 Sur 8 Noroeste 0 -- -- 65
2020-01-13 13:00:00 9.4 4 Oeste 7 Sudoeste 0 -- -- 64
2020-01-13 12:00:00 6.9 2 Sur 5 Sudeste 0 -- -- 77
2020-01-13 11:00:00 0.9 0 Calma 4 Sudeste 0 -- -- 96
2020-01-13 10:00:00 -1.7 0 Calma 2 Noroeste 0 -- -- 95
2020-01-13 09:00:00 -2.9 0 Calma 4 Noroeste 0 -- -- 94
2020-01-13 08:00:00 -2.8 0 Calma 3 Oeste 0 -- -- 94
2020-01-13 07:00:00 -3.3 0 Calma 3 Noroeste 0 -- -- 93
2020-01-13 06:00:00 -2.8 0 Calma 5 Este 0 -- -- 92
2020-01-13 05:00:00 -2 0 Calma 2 Oeste 0 -- -- 92
2020-01-13 04:00:00 -1.6 0 Calma 3 Noroeste 0 -- -- 91
2020-01-13 03:00:00 -1 0 Calma 4 Sur 0 -- -- 91
2020-01-13 02:00:00 -1.1 0 Calma 3 Sudeste 0 -- -- 89
2020-01-13 01:00:00 -0.1 0 Calma 2 Sur 0 -- -- 87
2020-01-13 00:00:00 0.3 0 Calma 5 Sudoeste 0 -- -- 86
2020-01-12 23:00:00 0.3 0 Calma 6 Oeste 0 -- -- 84
2020-01-12 22:00:00 1.4 0 Calma 4 Noroeste 0 -- -- 81
2020-01-12 21:00:00 2.4 0 Calma 5 Sudeste 0 -- -- 76
2020-01-12 20:00:00 3.5 2 Sudeste 9 Noroeste 0 -- -- 71
2020-01-12 19:00:00 5.8 3 Sudoeste 10 Este 0 -- -- 60
2020-01-12 18:00:00 8.1 5 Nordeste 11 Norte 0 -- -- 50
2020-01-12 17:00:00 11.5 4 Noroeste 12 Noroeste 0 -- -- 41
2020-01-12 16:00:00 12.1 6 Noroeste 14 Oeste 0 -- -- 41
2020-01-12 15:00:00 11.9 5 Oeste 15 Oeste 0 -- -- 44
2020-01-12 14:00:00 11.1 5 Oeste 17 Noroeste 0 -- -- 52
2020-01-12 13:00:00 10.4 4 Norte 24 Norte 0 -- -- 56
2020-01-12 12:00:00 9 7 Norte 16 Noroeste 0 -- -- 64
2020-01-12 11:00:00 5.8 5 Noroeste 14 Norte 0 -- -- 75
2020-01-12 10:00:00 3.6 5 Norte 14 Norte 0 -- -- 83
2020-01-12 09:00:00 4 4 Nordeste 15 Nordeste 0 -- -- 82
2020-01-12 08:00:00 0.9 3 Nordeste 14 Nordeste 0 -- -- 89
2020-01-12 07:00:00 0.9 5 Norte 13 Norte 0 -- -- 95
2020-01-12 06:00:00 -0.3 0 Calma 5 Sudeste 0 -- -- 95
2020-01-12 05:00:00 -0.3 0 Calma 4 Noroeste 0 -- -- 94
2020-01-12 04:00:00 0.5 0 Calma 4 Sudeste 0 -- -- 95
2020-01-12 03:00:00 0.1 0 Calma 4 Noroeste 0 -- -- 94
2020-01-12 02:00:00 0.6 0 Calma 3 Sur 0 -- -- 93
2020-01-12 01:00:00 1 0 Calma 2 Este 0 -- -- 92
2020-01-12 00:00:00 1.7 0 Calma 3 Sur 0 -- -- 91
2020-01-11 23:00:00 2 0 Calma 2 Oeste 0 -- -- 91
2020-01-11 22:00:00 2.3 0 Calma 4 Sudoeste 0 -- -- 89
2020-01-11 21:00:00 3.2 0 Calma 5 Sudoeste 0 -- -- 85
2020-01-11 20:00:00 4.7 0 Calma 8 Este 0 -- -- 81
2020-01-11 19:00:00 5.4 0 Calma 5 Nordeste 0 -- -- 80
2020-01-11 18:00:00 7.7 0 Calma 9 Sudoeste 0 -- -- 72
2020-01-11 17:00:00 11.6 3 Noroeste 10 Norte 0 -- -- 57
2020-01-11 16:00:00 11.7 5 Nordeste 16 Sur 0 -- -- 56
2020-01-11 15:00:00 11.7 5 Sudoeste 19 Noroeste 0 -- -- 55
2020-01-11 14:00:00 11 4 Sur 14 Este 0 -- -- 61
2020-01-11 13:00:00 9.5 4 Sudeste 20 Sudoeste 0 -- -- 66
2020-01-11 12:00:00 7.8 6 Sudoeste 14 Sur 0 -- -- 71
2020-01-11 11:00:00 5.4 5 Oeste 11 Sudoeste 0 -- -- 82
2020-01-11 10:00:00 3.8 5 Este 13 Este 0 -- -- 86
2020-01-11 09:00:00 3.3 4 Este 12 Nordeste 0 -- -- 88
2020-01-11 08:00:00 3.3 4 Nordeste 12 Norte 0 -- -- 89
2020-01-11 07:00:00 3.2 3 Nordeste 9 Nordeste 0 -- -- 90
2020-01-11 06:00:00 3.3 3 Nordeste 12 Nordeste 0 -- -- 91
2020-01-11 05:00:00 3.4 3 Nordeste 11 Nordeste 0 -- -- 89
2020-01-11 04:00:00 4.2 3 Nordeste 13 Sur 0 -- -- 90
2020-01-11 03:00:00 4.6 5 Sudeste 14 Este 0 -- -- 89
2020-01-11 02:00:00 4.9 5 Nordeste 10 Nordeste 0 -- -- 90
2020-01-11 01:00:00 3.9 4 Nordeste 11 Nordeste 0 -- -- 93
2020-01-11 00:00:00 4.5 3 Este 10 Este 0 -- -- 93
2020-01-10 23:00:00 4.6 2 Este 13 Nordeste 0 -- -- 92
2020-01-10 22:00:00 5.4 3 Nordeste 8 Este 0 -- -- 93
2020-01-10 21:00:00 4 2 Sudeste 4 Sur 0 -- -- 93
2020-01-10 20:00:00 4.2 3 Sudeste 5 Oeste 0 -- -- 91
2020-01-10 19:00:00 5.4 2 Este 8 Nordeste 0 -- -- 88
2020-01-10 18:00:00 6.8 0 Calma 4 Este 0 -- -- 85
2020-01-10 17:00:00 9.7 0 Calma 7 Noroeste 0 -- -- 78
2020-01-10 16:00:00 9.1 4 Norte 9 Nordeste 0 -- -- 82
2020-01-10 15:00:00 7.1 2 Nordeste 5 Sudoeste 0 -- -- 89
2020-01-10 14:00:00 6.4 3 Norte 7 Este 0 -- -- 90
2020-01-10 13:00:00 6.3 3 Sur 14 Nordeste 0 -- -- 90
2020-01-10 12:00:00 6.2 2 Sudoeste 15 Norte 0 -- -- 93
2020-01-10 11:00:00 5.5 2 Norte 9 Norte 0 -- -- 95
2020-01-10 10:00:00 5.1 3 Este 13 Nordeste 0 -- -- 95
2020-01-10 09:00:00 4.9 5 Este 18 Nordeste 0 -- -- 96
2020-01-10 08:00:00 4.3 5 Este 17 Este 0 -- -- 97
2020-01-10 07:00:00 3.3 4 Este 15 Norte 0 -- -- 98
2020-01-10 06:00:00 2.7 3 Nordeste 12 Oeste 0.8 -- -- 97
2020-01-10 05:00:00 2.7 4 Oeste 13 Oeste 0 -- -- 97
2020-01-10 04:00:00 3.5 5 Oeste 15 Oeste 0 -- -- 96
2020-01-10 03:00:00 4.9 5 Noroeste 12 Norte 0 -- -- 96
2020-01-10 02:00:00 5.1 2 Sudeste 6 Oeste 0 -- -- 95
2020-01-10 01:00:00 5.4 2 Sudeste 9 Sur 0 -- -- 93
2020-01-10 00:00:00 6.2 3 Sudoeste 8 Este 0 -- -- 91
2020-01-09 23:00:00 7 2 Sudeste 6 Sur 0 -- -- 88
2020-01-09 22:00:00 8 2 Noroeste 16 Sur 0 -- -- 85
2020-01-09 21:00:00 8.7 8 Sur 26 Sudeste 0 -- -- 85
2020-01-09 20:00:00 7.5 6 Sur 17 Sudeste 0 -- -- 91
2020-01-09 19:00:00 7.9 0 Calma 19 Sudeste 0 -- -- 83
2020-01-09 18:00:00 10 6 Sur 19 Sur 0 -- -- 79
2020-01-09 17:00:00 11.9 5 Sudoeste 12 Sudoeste 0 -- -- 73
2020-01-09 16:00:00 11.2 4 Sudoeste 8 Sur 0 -- -- 76
2020-01-09 15:00:00 10.4 4 Sudoeste 10 Sudoeste 0 -- -- 83
2020-01-09 14:00:00 7.9 4 Oeste 8 Oeste 0 -- -- 98
2020-01-09 13:00:00 4.8 0 Calma 5 Sur 0 -- -- 99
2020-01-09 12:00:00 3.1 2 Oeste 4 Sur 0 -- -- 98
2020-01-09 11:00:00 1.6 0 Calma 4 Sudeste 0 -- -- 99
2020-01-09 10:00:00 0.1 0 Calma 3 Noroeste 0 -- -- 98
2020-01-09 09:00:00 0.1 0 Calma 3 Noroeste 0 -- -- 97
2020-01-09 08:00:00 0.3 0 Calma 3 Noroeste 0 -- -- 97
2020-01-09 07:00:00 0.6 2 Norte 5 Oeste 0 -- -- 97
2020-01-09 06:00:00 1.1 0 Calma 4 Sur 0 -- -- 97
2020-01-09 05:00:00 1.7 0 Calma 3 Norte 0 -- -- 97
2020-01-09 04:00:00 0.8 0 Calma 4 Noroeste 0 -- -- 97
2020-01-09 03:00:00 0.8 0 Calma 4 Sudeste 0 -- -- 97
2020-01-09 02:00:00 0.6 0 Calma 4 Sudeste 0 -- -- 96
2020-01-09 01:00:00 0.8 0 Calma 4 Sudeste 0 -- -- 96
2020-01-09 00:00:00 1.2 0 Calma 3 Sudeste 0 -- -- 95
2020-01-08 23:00:00 1.7 0 Calma 2 Oeste 0 -- -- 95
2020-01-08 22:00:00 2.4 0 Calma 5 Sudeste 0 -- -- 93
2020-01-08 21:00:00 3.3 0 Calma 4 Oeste 0 -- -- 92
2020-01-08 20:00:00 4.6 0 Calma 3 Noroeste 0 -- -- 90
2020-01-08 19:00:00 6.1 0 Calma 2 Noroeste 0 -- -- 87
2020-01-08 18:00:00 8.6 0 Calma 4 Noroeste 0 -- -- 79
2020-01-08 17:00:00 11.6 2 Sudoeste 6 Oeste 0 -- -- 70
2020-01-08 16:00:00 12.2 3 Oeste 9 Sur 0 -- -- 70
2020-01-08 15:00:00 11.6 3 Sudoeste 8 Sudoeste 0 -- -- 72
2020-01-08 14:00:00 10.1 4 Oeste 8 Sudoeste 0 -- -- 79
2020-01-08 13:00:00 7.6 3 Sur 7 Sudeste 0 -- -- 96
2020-01-08 12:00:00 3.6 0 Calma 5 Sudeste 0 -- -- 99
2020-01-08 11:00:00 2.2 2 Sudeste 5 Sudeste 0 -- -- 99
2020-01-08 10:00:00 0.9 2 Sudeste 5 Sur 0 -- -- 98
2020-01-08 09:00:00 0.1 0 Calma 2 Norte 0 -- -- 98
2020-01-08 08:00:00 0.1 0 Calma 6 Sudeste 0 -- -- 97
2020-01-08 07:00:00 0.3 2 Este 4 Este 0 -- -- 97
2020-01-08 06:00:00 0.5 0 Calma 5 Sudeste 0 -- -- 97
2020-01-08 05:00:00 0.6 3 Sudeste 9 Este 0 -- -- 97
2020-01-08 04:00:00 0.8 4 Este 10 Este 0 -- -- 97
2020-01-08 03:00:00 1.1 3 Este 10 Noroeste 0 -- -- 97
2020-01-08 02:00:00 1.3 5 Este 11 Este 0 -- -- 97
2020-01-08 01:00:00 1.2 5 Nordeste 13 Norte 0 -- -- 97
2020-01-08 00:00:00 0.7 4 Norte 10 Noroeste 0 -- -- 97
2020-01-07 23:00:00 1.1 2 Este 5 Este 0 -- -- 96
2020-01-07 22:00:00 1.6 2 Este 5 Sudeste 0 -- -- 96
2020-01-07 21:00:00 2.1 0 Calma 5 Este 0 -- -- 95
2020-01-07 20:00:00 2.4 3 Sudeste 5 Sudeste 0 -- -- 94
2020-01-07 19:00:00 2.5 3 Este 9 Noroeste 0 -- -- 92
2020-01-07 18:00:00 3.2 4 Norte 9 Noroeste 0 -- -- 89
2020-01-07 17:00:00 5.5 2 Sur 14 Noroeste 0 -- -- 81
2020-01-07 16:00:00 7.1 10 Noroeste 18 Noroeste 0 -- -- 78
2020-01-07 15:00:00 7.7 6 Noroeste 17 Noroeste 0 -- -- 77
2020-01-07 14:00:00 6.6 10 Noroeste 22 Noroeste 0 -- -- 83
2020-01-07 13:00:00 4.2 6 Noroeste 17 Oeste 0 -- -- 92
2020-01-07 12:00:00 2.7 5 Norte 13 Nordeste 0 -- -- 95
2020-01-07 11:00:00 2.3 5 Noroeste 14 Noroeste 0 -- -- 96
2020-01-07 10:00:00 1.6 7 Noroeste 16 Norte 0 -- -- 97
2020-01-07 09:00:00 1.4 4 Nordeste 9 Noroeste 0 -- -- 97
2020-01-07 08:00:00 1.2 2 Este 9 Noroeste 0 -- -- 97
2020-01-07 07:00:00 1.3 3 Nordeste 9 Noroeste 0 -- -- 97
2020-01-07 06:00:00 1.3 5 Norte 13 Norte 0 -- -- 97
2020-01-07 05:00:00 1.6 4 Norte 11 Norte 0 -- -- 98
2020-01-07 04:00:00 1.7 2 Noroeste 10 Noroeste 0 -- -- 98
2020-01-07 03:00:00 1.9 2 Norte 9 Nordeste 0 -- -- 98
2020-01-07 02:00:00 2.2 3 Sur 9 Sudoeste 0 -- -- 98
2020-01-07 01:00:00 2.1 4 Oeste 9 Oeste 0 -- -- 98
2020-01-07 00:00:00 2.1 4 Noroeste 10 Sur 0 -- -- 97
2020-01-06 23:00:00 2.6 3 Noroeste 9 Sur 0 -- -- 97
2020-01-06 22:00:00 2.8 3 Sur 9 Oeste 0 -- -- 97
2020-01-06 21:00:00 2.9 2 Nordeste 8 Oeste 0 -- -- 96
2020-01-06 20:00:00 3.3 3 Sudoeste 9 Oeste 0 -- -- 96
2020-01-06 19:00:00 3.8 5 Oeste 12 Norte 0 -- -- 95
2020-01-06 18:00:00 4.5 5 Noroeste 12 Noroeste 0 -- -- 93
2020-01-06 17:00:00 5.8 3 Oeste 8 Oeste 0 -- -- 90
2020-01-06 16:00:00 6.6 4 Noroeste 8 Nordeste 0 -- -- 88
2020-01-06 15:00:00 6.5 3 Sur 8 Sur 0 -- -- 89
2020-01-06 14:00:00 5.7 3 Sudoeste 9 Sur 0 -- -- 94
2020-01-06 13:00:00 4.5 3 Este 5 Sudeste 0 -- -- 97
2020-01-06 12:00:00 2.8 0 Calma 5 Sudeste 0 -- -- 98
2020-01-06 11:00:00 1 3 Sudeste 5 Este 0 -- -- 98
2020-01-06 10:00:00 -0.8 0 Calma 3 Este 0 -- -- 97